sensor_id;sensor_type;location;lat;lon;timestamp;temperature;humidity
3408;DHT22;1717;50.240;8.406;2023-08-21T00:01:03;24.50;99.90
3408;DHT22;1717;50.240;8.406;2023-08-21T00:03:30;24.40;99.90
3408;DHT22;1717;50.240;8.406;2023-08-21T00:05:57;24.40;99.90
3408;DHT22;1717;50.240;8.406;2023-08-21T00:08:24;24.40;99.90
3408;DHT22;1717;50.240;8.406;2023-08-21T00:10:51;24.40;99.90
3408;DHT22;1717;50.240;8.406;2023-08-21T00:13:17;24.30;99.90
3408;DHT22;1717;50.240;8.406;2023-08-21T00:15:46;24.30;99.90
3408;DHT22;1717;50.240;8.406;2023-08-21T00:18:13;24.20;99.90
3408;DHT22;1717;50.240;8.406;2023-08-21T00:20:40;24.20;99.90
3408;DHT22;1717;50.240;8.406;2023-08-21T00:23:08;24.20;99.90
3408;DHT22;1717;50.240;8.406;2023-08-21T00:25:35;24.10;99.90
3408;DHT22;1717;50.240;8.406;2023-08-21T00:28:02;24.10;99.90
3408;DHT22;1717;50.240;8.406;2023-08-21T00:30:29;24.00;99.90
3408;DHT22;1717;50.240;8.406;2023-08-21T00:32:57;23.90;99.90
3408;DHT22;1717;50.240;8.406;2023-08-21T00:35:24;23.90;99.90
3408;DHT22;1717;50.240;8.406;2023-08-21T00:37:51;23.90;99.90
3408;DHT22;1717;50.240;8.406;2023-08-21T00:40:18;23.80;99.90
3408;DHT22;1717;50.240;8.406;2023-08-21T00:42:44;23.80;99.90
3408;DHT22;1717;50.240;8.406;2023-08-21T00:45:11;23.80;99.90
3408;DHT22;1717;50.240;8.406;2023-08-21T00:47:39;23.70;99.90
3408;DHT22;1717;50.240;8.406;2023-08-21T00:50:08;23.70;99.90
3408;DHT22;1717;50.240;8.406;2023-08-21T00:52:38;23.70;99.90
3408;DHT22;1717;50.240;8.406;2023-08-21T00:55:07;23.80;99.90
3408;DHT22;1717;50.240;8.406;2023-08-21T00:57:35;23.60;99.90
3408;DHT22;1717;50.240;8.406;2023-08-21T01:00:03;23.60;99.90
3408;DHT22;1717;50.240;8.406;2023-08-21T01:02:31;23.60;99.90
3408;DHT22;1717;50.240;8.406;2023-08-21T01:04:57;23.60;99.90
3408;DHT22;1717;50.240;8.406;2023-08-21T01:07:26;23.60;99.90
3408;DHT22;1717;50.240;8.406;2023-08-21T01:09:58;23.60;99.90
3408;DHT22;1717;50.240;8.406;2023-08-21T01:12:36;23.60;99.90
3408;DHT22;1717;50.240;8.406;2023-08-21T01:15:05;23.60;99.90
3408;DHT22;1717;50.240;8.406;2023-08-21T01:17:34;23.60;99.90
3408;DHT22;1717;50.240;8.406;2023-08-21T01:20:03;23.60;99.90
3408;DHT22;1717;50.240;8.406;2023-08-21T01:22:38;23.60;99.90
3408;DHT22;1717;50.240;8.406;2023-08-21T01:25:08;23.60;99.90
3408;DHT22;1717;50.240;8.406;2023-08-21T01:27:35;23.50;99.90
3408;DHT22;1717;50.240;8.406;2023-08-21T01:30:03;23.50;99.90
3408;DHT22;1717;50.240;8.406;2023-08-21T01:32:48;23.60;99.90
3408;DHT22;1717;50.240;8.406;2023-08-21T01:35:17;23.50;99.90
3408;DHT22;1717;50.240;8.406;2023-08-21T01:37:44;23.60;99.90
3408;DHT22;1717;50.240;8.406;2023-08-21T01:40:12;23.50;99.90
3408;DHT22;1717;50.240;8.406;2023-08-21T01:42:46;23.50;99.90
3408;DHT22;1717;50.240;8.406;2023-08-21T01:45:13;23.50;99.90
3408;DHT22;1717;50.240;8.406;2023-08-21T01:47:39;23.50;99.90
3408;DHT22;1717;50.240;8.406;2023-08-21T01:50:07;23.50;99.90
3408;DHT22;1717;50.240;8.406;2023-08-21T01:52:34;23.50;99.90
3408;DHT22;1717;50.240;8.406;2023-08-21T01:55:01;23.50;99.90
3408;DHT22;1717;50.240;8.406;2023-08-21T01:57:30;23.50;99.90
3408;DHT22;1717;50.240;8.406;2023-08-21T01:59:57;23.50;99.90
3408;DHT22;1717;50.240;8.406;2023-08-21T02:02:24;23.50;99.90
3408;DHT22;1717;50.240;8.406;2023-08-21T02:04:51;23.50;99.90
3408;DHT22;1717;50.240;8.406;2023-08-21T02:07:17;23.50;99.90
3408;DHT22;1717;50.240;8.406;2023-08-21T02:09:44;23.50;99.90
3408;DHT22;1717;50.240;8.406;2023-08-21T02:12:11;23.50;99.90
3408;DHT22;1717;50.240;8.406;2023-08-21T02:14:39;23.50;99.90
3408;DHT22;1717;50.240;8.406;2023-08-21T02:17:06;23.50;99.90
3408;DHT22;1717;50.240;8.406;2023-08-21T02:19:33;23.50;99.90
3408;DHT22;1717;50.240;8.406;2023-08-21T02:21:59;23.50;99.90
3408;DHT22;1717;50.240;8.406;2023-08-21T02:24:26;23.50;99.90
3408;DHT22;1717;50.240;8.406;2023-08-21T02:26:53;23.50;99.90
3408;DHT22;1717;50.240;8.406;2023-08-21T02:29:20;23.50;99.90
3408;DHT22;1717;50.240;8.406;2023-08-21T02:31:48;23.50;99.90
3408;DHT22;1717;50.240;8.406;2023-08-21T02:34:15;23.50;99.90
3408;DHT22;1717;50.240;8.406;2023-08-21T02:36:42;23.50;99.90
3408;DHT22;1717;50.240;8.406;2023-08-21T02:39:09;23.50;99.90
3408;DHT22;1717;50.240;8.406;2023-08-21T02:41:35;23.50;99.90
3408;DHT22;1717;50.240;8.406;2023-08-21T02:44:02;23.50;99.90
3408;DHT22;1717;50.240;8.406;2023-08-21T02:46:29;23.50;99.90
3408;DHT22;1717;50.240;8.406;2023-08-21T02:48:57;23.50;99.90
3408;DHT22;1717;50.240;8.406;2023-08-21T02:51:24;23.40;99.90
3408;DHT22;1717;50.240;8.406;2023-08-21T02:53:51;23.40;99.90
3408;DHT22;1717;50.240;8.406;2023-08-21T02:56:19;23.40;99.90
3408;DHT22;1717;50.240;8.406;2023-08-21T02:58:45;23.40;99.90
3408;DHT22;1717;50.240;8.406;2023-08-21T03:01:12;23.40;99.90
3408;DHT22;1717;50.240;8.406;2023-08-21T03:03:39;23.30;99.90
3408;DHT22;1717;50.240;8.406;2023-08-21T03:06:07;23.30;99.90
3408;DHT22;1717;50.240;8.406;2023-08-21T03:08:34;23.30;99.90
3408;DHT22;1717;50.240;8.406;2023-08-21T03:11:01;23.30;99.90
3408;DHT22;1717;50.240;8.406;2023-08-21T03:13:28;23.30;99.90
3408;DHT22;1717;50.240;8.406;2023-08-21T03:15:54;23.20;99.90
3408;DHT22;1717;50.240;8.406;2023-08-21T03:18:21;23.20;99.90
3408;DHT22;1717;50.240;8.406;2023-08-21T03:20:48;23.30;99.90
3408;DHT22;1717;50.240;8.406;2023-08-21T03:23:16;23.30;99.90
3408;DHT22;1717;50.240;8.406;2023-08-21T03:25:43;23.30;99.90
3408;DHT22;1717;50.240;8.406;2023-08-21T03:28:10;23.30;99.90
3408;DHT22;1717;50.240;8.406;2023-08-21T03:30:39;23.30;99.90
3408;DHT22;1717;50.240;8.406;2023-08-21T03:33:06;23.30;99.90
3408;DHT22;1717;50.240;8.406;2023-08-21T03:35:33;23.30;99.90
3408;DHT22;1717;50.240;8.406;2023-08-21T03:38:00;23.40;99.90
3408;DHT22;1717;50.240;8.406;2023-08-21T03:40:28;23.30;99.90
3408;DHT22;1717;50.240;8.406;2023-08-21T03:42:55;23.20;99.90
3408;DHT22;1717;50.240;8.406;2023-08-21T03:45:22;23.20;99.90
3408;DHT22;1717;50.240;8.406;2023-08-21T03:47:49;23.30;99.90
3408;DHT22;1717;50.240;8.406;2023-08-21T03:50:16;23.30;99.90
3408;DHT22;1717;50.240;8.406;2023-08-21T03:52:42;23.30;99.90
3408;DHT22;1717;50.240;8.406;2023-08-21T03:55:09;23.30;99.90
3408;DHT22;1717;50.240;8.406;2023-08-21T03:57:37;23.30;99.90
3408;DHT22;1717;50.240;8.406;2023-08-21T04:00:05;23.30;99.90
3408;DHT22;1717;50.240;8.406;2023-08-21T04:02:33;23.30;99.90
3408;DHT22;1717;50.240;8.406;2023-08-21T04:05:00;23.30;99.90
3408;DHT22;1717;50.240;8.406;2023-08-21T04:07:27;23.30;99.90
3408;DHT22;1717;50.240;8.406;2023-08-21T04:09:53;23.30;99.90
3408;DHT22;1717;50.240;8.406;2023-08-21T04:12:20;23.30;99.90
3408;DHT22;1717;50.240;8.406;2023-08-21T04:14:48;23.30;99.90
3408;DHT22;1717;50.240;8.406;2023-08-21T04:17:20;23.20;99.90
3408;DHT22;1717;50.240;8.406;2023-08-21T04:19:47;23.20;99.90
3408;DHT22;1717;50.240;8.406;2023-08-21T04:22:14;23.20;99.90
3408;DHT22;1717;50.240;8.406;2023-08-21T04:24:41;23.20;99.90
3408;DHT22;1717;50.240;8.406;2023-08-21T04:27:07;23.20;99.90
3408;DHT22;1717;50.240;8.406;2023-08-21T04:29:35;23.10;99.90
3408;DHT22;1717;50.240;8.406;2023-08-21T04:32:04;23.10;99.90
3408;DHT22;1717;50.240;8.406;2023-08-21T04:34:32;23.10;99.90
3408;DHT22;1717;50.240;8.406;2023-08-21T04:36:59;23.10;99.90
3408;DHT22;1717;50.240;8.406;2023-08-21T04:39:26;23.10;99.90
3408;DHT22;1717;50.240;8.406;2023-08-21T04:41:53;23.10;99.90
3408;DHT22;1717;50.240;8.406;2023-08-21T04:44:19;23.00;99.90
3408;DHT22;1717;50.240;8.406;2023-08-21T04:46:48;23.00;99.90
3408;DHT22;1717;50.240;8.406;2023-08-21T04:49:16;22.90;99.90
3408;DHT22;1717;50.240;8.406;2023-08-21T04:51:43;23.00;99.90
3408;DHT22;1717;50.240;8.406;2023-08-21T04:54:10;23.00;99.90
3408;DHT22;1717;50.240;8.406;2023-08-21T04:56:37;22.90;99.90
3408;DHT22;1717;50.240;8.406;2023-08-21T04:59:04;22.90;99.90
3408;DHT22;1717;50.240;8.406;2023-08-21T05:01:31;22.90;99.90
3408;DHT22;1717;50.240;8.406;2023-08-21T05:03:57;22.90;99.90
3408;DHT22;1717;50.240;8.406;2023-08-21T05:06:26;22.90;99.90
3408;DHT22;1717;50.240;8.406;2023-08-21T05:08:52;22.90;99.90
3408;DHT22;1717;50.240;8.406;2023-08-21T05:11:19;23.00;99.90
3408;DHT22;1717;50.240;8.406;2023-08-21T05:13:46;22.90;99.90
3408;DHT22;1717;50.240;8.406;2023-08-21T05:16:13;22.90;99.90
3408;DHT22;1717;50.240;8.406;2023-08-21T05:18:39;22.90;99.90
3408;DHT22;1717;50.240;8.406;2023-08-21T05:21:07;22.90;99.90
3408;DHT22;1717;50.240;8.406;2023-08-21T05:23:35;23.00;99.90
3408;DHT22;1717;50.240;8.406;2023-08-21T05:26:02;22.90;99.90
3408;DHT22;1717;50.240;8.406;2023-08-21T05:28:28;23.00;99.90
3408;DHT22;1717;50.240;8.406;2023-08-21T05:30:57;22.90;99.90
3408;DHT22;1717;50.240;8.406;2023-08-21T05:33:24;22.90;99.90
3408;DHT22;1717;50.240;8.406;2023-08-21T05:35:51;23.00;99.90
3408;DHT22;1717;50.240;8.406;2023-08-21T05:38:19;23.00;99.90
3408;DHT22;1717;50.240;8.406;2023-08-21T05:40:48;23.00;99.90
3408;DHT22;1717;50.240;8.406;2023-08-21T05:43:16;23.00;99.90
3408;DHT22;1717;50.240;8.406;2023-08-21T05:45:42;23.00;99.90
3408;DHT22;1717;50.240;8.406;2023-08-21T05:48:09;23.00;99.90
3408;DHT22;1717;50.240;8.406;2023-08-21T05:50:36;23.00;99.90
3408;DHT22;1717;50.240;8.406;2023-08-21T05:53:03;23.10;99.90
3408;DHT22;1717;50.240;8.406;2023-08-21T05:55:30;23.10;99.90
3408;DHT22;1717;50.240;8.406;2023-08-21T05:57:58;23.10;99.90
3408;DHT22;1717;50.240;8.406;2023-08-21T06:00:25;23.20;99.90
3408;DHT22;1717;50.240;8.406;2023-08-21T06:02:52;23.20;99.90
3408;DHT22;1717;50.240;8.406;2023-08-21T06:05:18;23.20;99.90
3408;DHT22;1717;50.240;8.406;2023-08-21T06:07:45;23.20;99.90
3408;DHT22;1717;50.240;8.406;2023-08-21T06:10:12;23.30;99.90
3408;DHT22;1717;50.240;8.406;2023-08-21T06:12:40;23.30;99.90
3408;DHT22;1717;50.240;8.406;2023-08-21T06:15:10;23.30;99.90
3408;DHT22;1717;50.240;8.406;2023-08-21T06:17:37;23.30;99.90
3408;DHT22;1717;50.240;8.406;2023-08-21T06:20:05;23.30;99.90
3408;DHT22;1717;50.240;8.406;2023-08-21T06:22:34;23.30;99.90
3408;DHT22;1717;50.240;8.406;2023-08-21T06:25:01;23.40;99.90
3408;DHT22;1717;50.240;8.406;2023-08-21T06:27:28;23.40;99.90
3408;DHT22;1717;50.240;8.406;2023-08-21T06:29:55;23.40;99.90
3408;DHT22;1717;50.240;8.406;2023-08-21T06:32:23;23.50;99.90
3408;DHT22;1717;50.240;8.406;2023-08-21T06:34:50;23.50;99.90
3408;DHT22;1717;50.240;8.406;2023-08-21T06:37:17;23.50;99.90
3408;DHT22;1717;50.240;8.406;2023-08-21T06:39:44;23.50;99.90
3408;DHT22;1717;50.240;8.406;2023-08-21T06:42:11;23.40;99.90
3408;DHT22;1717;50.240;8.406;2023-08-21T06:44:38;23.50;99.90
3408;DHT22;1717;50.240;8.406;2023-08-21T06:47:05;23.40;99.90
3408;DHT22;1717;50.240;8.406;2023-08-21T06:49:33;23.40;99.90
3408;DHT22;1717;50.240;8.406;2023-08-21T06:52:00;23.50;99.90
3408;DHT22;1717;50.240;8.406;2023-08-21T06:54:28;23.60;99.90
3408;DHT22;1717;50.240;8.406;2023-08-21T06:56:55;23.60;99.90
3408;DHT22;1717;50.240;8.406;2023-08-21T06:59:22;23.70;99.90
3408;DHT22;1717;50.240;8.406;2023-08-21T07:01:48;23.80;99.90
3408;DHT22;1717;50.240;8.406;2023-08-21T07:04:16;23.90;99.90
3408;DHT22;1717;50.240;8.406;2023-08-21T07:06:44;24.00;99.90
3408;DHT22;1717;50.240;8.406;2023-08-21T07:09:11;24.10;99.90
3408;DHT22;1717;50.240;8.406;2023-08-21T07:11:38;24.20;99.90
3408;DHT22;1717;50.240;8.406;2023-08-21T07:14:05;24.30;99.90
3408;DHT22;1717;50.240;8.406;2023-08-21T07:16:31;24.40;99.90
3408;DHT22;1717;50.240;8.406;2023-08-21T07:18:58;24.40;99.90
3408;DHT22;1717;50.240;8.406;2023-08-21T07:21:25;24.50;99.90
3408;DHT22;1717;50.240;8.406;2023-08-21T07:23:53;24.60;99.90
3408;DHT22;1717;50.240;8.406;2023-08-21T07:26:20;24.70;99.90
3408;DHT22;1717;50.240;8.406;2023-08-21T07:28:47;24.80;99.90
3408;DHT22;1717;50.240;8.406;2023-08-21T07:31:14;24.90;99.90
3408;DHT22;1717;50.240;8.406;2023-08-21T07:33:41;25.00;99.90
3408;DHT22;1717;50.240;8.406;2023-08-21T07:36:08;25.10;99.90
3408;DHT22;1717;50.240;8.406;2023-08-21T07:38:34;25.10;99.90
3408;DHT22;1717;50.240;8.406;2023-08-21T07:41:04;25.20;99.90
3408;DHT22;1717;50.240;8.406;2023-08-21T07:43:31;25.30;99.90
3408;DHT22;1717;50.240;8.406;2023-08-21T07:46:02;25.40;99.90
3408;DHT22;1717;50.240;8.406;2023-08-21T07:48:29;25.40;99.90
3408;DHT22;1717;50.240;8.406;2023-08-21T07:50:56;25.60;99.90
3408;DHT22;1717;50.240;8.406;2023-08-21T07:53:23;25.60;99.90
3408;DHT22;1717;50.240;8.406;2023-08-21T07:55:50;25.80;99.90
3408;DHT22;1717;50.240;8.406;2023-08-21T07:58:19;25.80;99.90
3408;DHT22;1717;50.240;8.406;2023-08-21T08:00:46;25.90;99.90
3408;DHT22;1717;50.240;8.406;2023-08-21T08:03:14;26.00;99.90
3408;DHT22;1717;50.240;8.406;2023-08-21T08:05:41;26.10;99.90
3408;DHT22;1717;50.240;8.406;2023-08-21T08:08:08;26.10;99.90
3408;DHT22;1717;50.240;8.406;2023-08-21T08:10:37;26.20;99.90
3408;DHT22;1717;50.240;8.406;2023-08-21T08:13:05;26.30;99.90
3408;DHT22;1717;50.240;8.406;2023-08-21T08:15:33;26.40;99.90
3408;DHT22;1717;50.240;8.406;2023-08-21T08:18:01;26.50;99.90
3408;DHT22;1717;50.240;8.406;2023-08-21T08:20:28;26.60;99.90
3408;DHT22;1717;50.240;8.406;2023-08-21T08:22:55;26.60;99.90
3408;DHT22;1717;50.240;8.406;2023-08-21T08:25:22;26.70;99.90
3408;DHT22;1717;50.240;8.406;2023-08-21T08:27:51;26.80;99.90
3408;DHT22;1717;50.240;8.406;2023-08-21T08:30:18;26.80;99.90
3408;DHT22;1717;50.240;8.406;2023-08-21T08:32:46;26.90;99.90
3408;DHT22;1717;50.240;8.406;2023-08-21T08:35:14;26.90;99.90
3408;DHT22;1717;50.240;8.406;2023-08-21T08:37:41;27.00;99.90
3408;DHT22;1717;50.240;8.406;2023-08-21T08:40:09;27.10;99.90
3408;DHT22;1717;50.240;8.406;2023-08-21T08:42:36;27.10;99.90
3408;DHT22;1717;50.240;8.406;2023-08-21T08:45:04;27.10;99.90
3408;DHT22;1717;50.240;8.406;2023-08-21T08:47:32;27.20;99.90
3408;DHT22;1717;50.240;8.406;2023-08-21T08:50:01;27.30;99.90
3408;DHT22;1717;50.240;8.406;2023-08-21T08:52:31;27.40;99.90
3408;DHT22;1717;50.240;8.406;2023-08-21T08:55:00;27.40;99.90
3408;DHT22;1717;50.240;8.406;2023-08-21T08:57:28;27.40;99.90
3408;DHT22;1717;50.240;8.406;2023-08-21T08:59:55;27.50;99.90
3408;DHT22;1717;50.240;8.406;2023-08-21T09:02:22;27.50;99.80
3408;DHT22;1717;50.240;8.406;2023-08-21T09:04:50;27.50;99.60
3408;DHT22;1717;50.240;8.406;2023-08-21T09:07:18;27.60;99.50
3408;DHT22;1717;50.240;8.406;2023-08-21T09:09:47;27.70;99.30
3408;DHT22;1717;50.240;8.406;2023-08-21T09:12:16;27.80;99.10
3408;DHT22;1717;50.240;8.406;2023-08-21T09:14:44;27.80;99.00
3408;DHT22;1717;50.240;8.406;2023-08-21T09:17:12;27.80;98.80
3408;DHT22;1717;50.240;8.406;2023-08-21T09:19:39;27.90;98.00
3408;DHT22;1717;50.240;8.406;2023-08-21T09:22:10;28.00;97.70
3408;DHT22;1717;50.240;8.406;2023-08-21T09:24:40;28.00;97.30
3408;DHT22;1717;50.240;8.406;2023-08-21T09:27:15;28.10;97.00
3408;DHT22;1717;50.240;8.406;2023-08-21T09:29:42;28.10;96.60
3408;DHT22;1717;50.240;8.406;2023-08-21T09:32:09;28.20;96.30
3408;DHT22;1717;50.240;8.406;2023-08-21T09:34:37;28.20;95.80
3408;DHT22;1717;50.240;8.406;2023-08-21T09:37:05;28.20;95.00
3408;DHT22;1717;50.240;8.406;2023-08-21T09:39:34;28.40;95.10
3408;DHT22;1717;50.240;8.406;2023-08-21T09:42:05;28.30;94.20
3408;DHT22;1717;50.240;8.406;2023-08-21T09:44:36;28.40;93.80
3408;DHT22;1717;50.240;8.406;2023-08-21T09:47:04;28.30;93.40
3408;DHT22;1717;50.240;8.406;2023-08-21T09:49:34;28.30;93.40
3408;DHT22;1717;50.240;8.406;2023-08-21T09:52:04;28.30;93.30
3408;DHT22;1717;50.240;8.406;2023-08-21T09:54:32;28.40;93.30
3408;DHT22;1717;50.240;8.406;2023-08-21T09:57:03;28.40;93.00
3408;DHT22;1717;50.240;8.406;2023-08-21T09:59:30;28.50;92.70
3408;DHT22;1717;50.240;8.406;2023-08-21T10:01:59;28.50;92.50
3408;DHT22;1717;50.240;8.406;2023-08-21T10:04:28;28.60;92.30
3408;DHT22;1717;50.240;8.406;2023-08-21T10:06:56;28.60;92.30
3408;DHT22;1717;50.240;8.406;2023-08-21T10:09:24;28.60;91.60
3408;DHT22;1717;50.240;8.406;2023-08-21T10:11:53;28.70;91.30
3408;DHT22;1717;50.240;8.406;2023-08-21T10:14:24;28.70;90.90
3408;DHT22;1717;50.240;8.406;2023-08-21T10:16:53;28.70;90.70
3408;DHT22;1717;50.240;8.406;2023-08-21T10:19:20;28.80;90.40
3408;DHT22;1717;50.240;8.406;2023-08-21T10:21:48;28.90;90.60
3408;DHT22;1717;50.240;8.406;2023-08-21T10:24:26;28.80;89.20
3408;DHT22;1717;50.240;8.406;2023-08-21T10:26:58;28.90;89.00
3408;DHT22;1717;50.240;8.406;2023-08-21T10:29:26;28.90;87.30
3408;DHT22;1717;50.240;8.406;2023-08-21T10:32:00;28.90;86.10
3408;DHT22;1717;50.240;8.406;2023-08-21T10:34:32;29.00;86.20
3408;DHT22;1717;50.240;8.406;2023-08-21T10:37:04;29.00;85.70
3408;DHT22;1717;50.240;8.406;2023-08-21T10:39:33;29.10;86.10
3408;DHT22;1717;50.240;8.406;2023-08-21T10:42:04;29.00;85.20
3408;DHT22;1717;50.240;8.406;2023-08-21T10:44:46;29.10;84.80
3408;DHT22;1717;50.240;8.406;2023-08-21T10:47:15;29.00;85.90
3408;DHT22;1717;50.240;8.406;2023-08-21T10:49:43;29.00;85.20
3408;DHT22;1717;50.240;8.406;2023-08-21T10:52:11;29.00;85.70
3408;DHT22;1717;50.240;8.406;2023-08-21T10:54:48;29.00;86.50
3408;DHT22;1717;50.240;8.406;2023-08-21T10:57:15;28.90;85.80
3408;DHT22;1717;50.240;8.406;2023-08-21T10:59:54;29.00;86.20
3408;DHT22;1717;50.240;8.406;2023-08-21T11:02:22;29.10;85.60
3408;DHT22;1717;50.240;8.406;2023-08-21T11:04:49;29.10;86.20
3408;DHT22;1717;50.240;8.406;2023-08-21T11:07:16;29.20;85.50
3408;DHT22;1717;50.240;8.406;2023-08-21T11:09:43;29.20;85.90
3408;DHT22;1717;50.240;8.406;2023-08-21T11:12:12;29.30;85.70
3408;DHT22;1717;50.240;8.406;2023-08-21T11:14:40;29.30;85.70
3408;DHT22;1717;50.240;8.406;2023-08-21T11:17:09;29.40;85.90
3408;DHT22;1717;50.240;8.406;2023-08-21T11:19:36;29.40;85.40
3408;DHT22;1717;50.240;8.406;2023-08-21T11:22:04;29.50;86.20
3408;DHT22;1717;50.240;8.406;2023-08-21T11:24:39;29.50;86.40
3408;DHT22;1717;50.240;8.406;2023-08-21T11:27:07;29.60;86.10
3408;DHT22;1717;50.240;8.406;2023-08-21T11:29:36;29.60;85.80
3408;DHT22;1717;50.240;8.406;2023-08-21T11:32:12;29.60;85.70
3408;DHT22;1717;50.240;8.406;2023-08-21T11:34:40;29.70;85.30
3408;DHT22;1717;50.240;8.406;2023-08-21T11:37:08;29.70;85.30
3408;DHT22;1717;50.240;8.406;2023-08-21T11:39:40;29.70;85.40
3408;DHT22;1717;50.240;8.406;2023-08-21T11:42:10;29.70;85.20
3408;DHT22;1717;50.240;8.406;2023-08-21T11:44:45;29.70;85.30
3408;DHT22;1717;50.240;8.406;2023-08-21T11:47:14;29.70;85.40
3408;DHT22;1717;50.240;8.406;2023-08-21T11:49:42;29.70;85.40
3408;DHT22;1717;50.240;8.406;2023-08-21T11:52:10;29.80;85.40
3408;DHT22;1717;50.240;8.406;2023-08-21T11:54:39;29.80;85.20
3408;DHT22;1717;50.240;8.406;2023-08-21T11:57:07;29.80;85.20
3408;DHT22;1717;50.240;8.406;2023-08-21T11:59:34;29.90;84.80
3408;DHT22;1717;50.240;8.406;2023-08-21T12:02:09;29.90;84.80
3408;DHT22;1717;50.240;8.406;2023-08-21T12:04:37;30.00;85.20
3408;DHT22;1717;50.240;8.406;2023-08-21T12:07:04;30.00;85.50
3408;DHT22;1717;50.240;8.406;2023-08-21T12:09:31;30.00;85.00
3408;DHT22;1717;50.240;8.406;2023-08-21T12:11:58;30.00;85.10
3408;DHT22;1717;50.240;8.406;2023-08-21T12:14:27;30.10;84.60
3408;DHT22;1717;50.240;8.406;2023-08-21T12:16:54;30.10;84.40
3408;DHT22;1717;50.240;8.406;2023-08-21T12:19:22;30.20;84.50
3408;DHT22;1717;50.240;8.406;2023-08-21T12:21:50;30.30;84.20
3408;DHT22;1717;50.240;8.406;2023-08-21T12:24:17;30.30;83.80
3408;DHT22;1717;50.240;8.406;2023-08-21T12:26:44;30.40;83.30
3408;DHT22;1717;50.240;8.406;2023-08-21T12:29:11;30.40;83.30
3408;DHT22;1717;50.240;8.406;2023-08-21T12:31:38;30.40;83.30
3408;DHT22;1717;50.240;8.406;2023-08-21T12:34:05;30.40;82.70
3408;DHT22;1717;50.240;8.406;2023-08-21T12:36:34;30.50;83.30
3408;DHT22;1717;50.240;8.406;2023-08-21T12:39:04;30.50;83.60
3408;DHT22;1717;50.240;8.406;2023-08-21T12:41:31;30.60;83.30
3408;DHT22;1717;50.240;8.406;2023-08-21T12:43:58;30.60;83.00
3408;DHT22;1717;50.240;8.406;2023-08-21T12:46:25;30.70;82.80
3408;DHT22;1717;50.240;8.406;2023-08-21T12:48:53;30.90;82.40
3408;DHT22;1717;50.240;8.406;2023-08-21T12:51:20;31.00;81.80
3408;DHT22;1717;50.240;8.406;2023-08-21T12:53:47;31.10;80.80
3408;DHT22;1717;50.240;8.406;2023-08-21T12:56:16;31.20;80.10
3408;DHT22;1717;50.240;8.406;2023-08-21T12:58:43;31.20;80.00
3408;DHT22;1717;50.240;8.406;2023-08-21T13:01:10;31.40;80.30
3408;DHT22;1717;50.240;8.406;2023-08-21T13:03:38;31.50;79.90
3408;DHT22;1717;50.240;8.406;2023-08-21T13:06:05;31.60;79.70
3408;DHT22;1717;50.240;8.406;2023-08-21T13:08:32;31.70;78.80
3408;DHT22;1717;50.240;8.406;2023-08-21T13:10:59;31.90;79.10
3408;DHT22;1717;50.240;8.406;2023-08-21T13:13:27;31.90;78.40
3408;DHT22;1717;50.240;8.406;2023-08-21T13:15:54;32.00;77.10
3408;DHT22;1717;50.240;8.406;2023-08-21T13:18:21;32.10;76.90
3408;DHT22;1717;50.240;8.406;2023-08-21T13:20:48;32.20;77.30
3408;DHT22;1717;50.240;8.406;2023-08-21T13:23:14;32.30;76.50
3408;DHT22;1717;50.240;8.406;2023-08-21T13:25:41;32.50;76.70
3408;DHT22;1717;50.240;8.406;2023-08-21T13:28:08;32.50;75.70
3408;DHT22;1717;50.240;8.406;2023-08-21T13:30:37;32.60;76.00
3408;DHT22;1717;50.240;8.406;2023-08-21T13:33:04;32.70;75.70
3408;DHT22;1717;50.240;8.406;2023-08-21T13:35:32;32.80;75.20
3408;DHT22;1717;50.240;8.406;2023-08-21T13:37:59;32.80;72.90
3408;DHT22;1717;50.240;8.406;2023-08-21T13:40:26;32.80;72.70
3408;DHT22;1717;50.240;8.406;2023-08-21T13:42:53;32.70;73.00
3408;DHT22;1717;50.240;8.406;2023-08-21T13:45:23;32.70;73.40
3408;DHT22;1717;50.240;8.406;2023-08-21T13:47:51;32.70;73.80
3408;DHT22;1717;50.240;8.406;2023-08-21T13:50:19;32.70;72.30
3408;DHT22;1717;50.240;8.406;2023-08-21T13:52:46;32.70;72.30
3408;DHT22;1717;50.240;8.406;2023-08-21T13:55:14;32.80;71.90
3408;DHT22;1717;50.240;8.406;2023-08-21T13:57:41;32.90;72.20
3408;DHT22;1717;50.240;8.406;2023-08-21T14:00:10;32.90;72.50
3408;DHT22;1717;50.240;8.406;2023-08-21T14:02:39;33.00;71.90
3408;DHT22;1717;50.240;8.406;2023-08-21T14:05:09;32.90;71.10
3408;DHT22;1717;50.240;8.406;2023-08-21T14:07:36;32.90;70.90
3408;DHT22;1717;50.240;8.406;2023-08-21T14:10:04;32.90;71.40
3408;DHT22;1717;50.240;8.406;2023-08-21T14:12:32;33.00;71.30
3408;DHT22;1717;50.240;8.406;2023-08-21T14:14:59;33.10;71.90
3408;DHT22;1717;50.240;8.406;2023-08-21T14:17:26;33.10;71.40
3408;DHT22;1717;50.240;8.406;2023-08-21T14:19:53;33.30;71.40
3408;DHT22;1717;50.240;8.406;2023-08-21T14:22:21;33.30;70.40
3408;DHT22;1717;50.240;8.406;2023-08-21T14:24:48;33.30;69.10
3408;DHT22;1717;50.240;8.406;2023-08-21T14:27:15;33.40;70.00
3408;DHT22;1717;50.240;8.406;2023-08-21T14:29:42;33.50;70.10
3408;DHT22;1717;50.240;8.406;2023-08-21T14:32:10;33.50;69.90
3408;DHT22;1717;50.240;8.406;2023-08-21T14:34:37;33.50;69.70
3408;DHT22;1717;50.240;8.406;2023-08-21T14:37:04;33.50;69.30
3408;DHT22;1717;50.240;8.406;2023-08-21T14:39:33;33.50;69.40
3408;DHT22;1717;50.240;8.406;2023-08-21T14:41:59;33.50;69.10
3408;DHT22;1717;50.240;8.406;2023-08-21T14:44:27;33.50;69.20
3408;DHT22;1717;50.240;8.406;2023-08-21T14:46:54;33.50;69.50
3408;DHT22;1717;50.240;8.406;2023-08-21T14:49:21;33.40;69.70
3408;DHT22;1717;50.240;8.406;2023-08-21T14:51:48;33.30;67.90
3408;DHT22;1717;50.240;8.406;2023-08-21T14:54:15;33.30;68.50
3408;DHT22;1717;50.240;8.406;2023-08-21T14:56:43;33.30;69.50
3408;DHT22;1717;50.240;8.406;2023-08-21T14:59:10;33.20;69.00
3408;DHT22;1717;50.240;8.406;2023-08-21T15:01:37;33.10;69.30
3408;DHT22;1717;50.240;8.406;2023-08-21T15:04:05;33.10;71.30
3408;DHT22;1717;50.240;8.406;2023-08-21T15:06:32;33.00;72.40
3408;DHT22;1717;50.240;8.406;2023-08-21T15:08:59;32.90;73.30
3408;DHT22;1717;50.240;8.406;2023-08-21T15:11:26;32.80;73.10
3408;DHT22;1717;50.240;8.406;2023-08-21T15:13:54;32.80;75.30
3408;DHT22;1717;50.240;8.406;2023-08-21T15:16:21;32.80;76.20
3408;DHT22;1717;50.240;8.406;2023-08-21T15:18:49;32.80;76.70
3408;DHT22;1717;50.240;8.406;2023-08-21T15:21:18;32.80;75.70
3408;DHT22;1717;50.240;8.406;2023-08-21T15:23:45;32.90;76.40
3408;DHT22;1717;50.240;8.406;2023-08-21T15:26:11;32.90;75.00
3408;DHT22;1717;50.240;8.406;2023-08-21T15:28:38;32.80;73.80
3408;DHT22;1717;50.240;8.406;2023-08-21T15:31:07;32.80;74.90
3408;DHT22;1717;50.240;8.406;2023-08-21T15:33:34;32.80;76.20
3408;DHT22;1717;50.240;8.406;2023-08-21T15:36:01;32.70;77.00
3408;DHT22;1717;50.240;8.406;2023-08-21T15:38:28;32.60;78.20
3408;DHT22;1717;50.240;8.406;2023-08-21T15:40:55;32.60;79.10
3408;DHT22;1717;50.240;8.406;2023-08-21T15:43:22;32.50;80.00
3408;DHT22;1717;50.240;8.406;2023-08-21T15:45:51;32.50;80.10
3408;DHT22;1717;50.240;8.406;2023-08-21T15:48:19;32.40;79.70
3408;DHT22;1717;50.240;8.406;2023-08-21T15:50:46;32.50;80.00
3408;DHT22;1717;50.240;8.406;2023-08-21T15:53:13;32.40;80.00
3408;DHT22;1717;50.240;8.406;2023-08-21T15:55:40;32.40;80.70
3408;DHT22;1717;50.240;8.406;2023-08-21T15:58:07;32.30;80.90
3408;DHT22;1717;50.240;8.406;2023-08-21T16:00:34;32.20;80.70
3408;DHT22;1717;50.240;8.406;2023-08-21T16:03:01;32.20;81.00
3408;DHT22;1717;50.240;8.406;2023-08-21T16:05:31;32.10;81.00